Time;durP1;ratioP1;P1;durP2;ratioP2;P2;SDS_P1;SDS_P2;PMS_P1;PMS_P2;Temp;Humidity;BMP_temperature;BMP_pressure;BME280_temperature;BME280_humidity;BME280_pressure;Samples;Min_cycle;Max_cycle;Signal;HPM_P1;HPM_P2
2021/05/07 00:02:09;;;;;;;0.70;0.70;;;8.10;99.90;;;;;;4962704;28;21065;-94
2021/05/07 00:04:35;;;;;;;0.90;0.90;;;8.10;99.90;;;;;;4963020;28;20247;-93
2021/05/07 00:07:00;;;;;;;0.80;0.80;;;8.20;99.90;;;;;;4952803;28;20764;-95
2021/05/07 00:09:28;;;;;;;0.63;0.63;;;8.20;99.90;;;;;;4962863;28;20269;-94
2021/05/07 00:11:58;;;;;;;2.10;1.13;;;8.20;99.90;;;;;;4961205;28;20185;-95
2021/05/07 00:14:24;;;;;;;1.20;0.83;;;8.20;99.90;;;;;;4962705;28;20563;-94
2021/05/07 00:16:59;;;;;;;0.87;0.70;;;8.20;99.90;;;;;;4979783;28;20511;-95
2021/05/07 00:19:24;;;;;;;0.70;0.70;;;8.20;99.90;;;;;;4976855;28;20477;-94
2021/05/07 00:21:50;;;;;;;0.60;0.60;;;8.20;99.90;;;;;;4964214;28;20475;-96
2021/05/07 00:24:16;;;;;;;0.87;0.77;;;8.20;99.90;;;;;;4985407;28;20253;-94
2021/05/07 00:26:43;;;;;;;0.70;0.70;;;8.20;99.90;;;;;;4980773;28;20292;-93
2021/05/07 00:29:09;;;;;;;0.90;0.90;;;8.10;99.90;;;;;;4975335;28;20201;-94
2021/05/07 00:31:35;;;;;;;0.60;0.60;;;8.10;99.90;;;;;;4979249;28;20458;-94
2021/05/07 00:34:01;;;;;;;0.80;0.80;;;8.10;99.90;;;;;;4979026;28;20983;-94
2021/05/07 00:39:41;;;;;;;1.30;0.73;;;8.00;99.90;;;;;;4979758;28;20224;-93
2021/05/07 00:42:11;;;;;;;1.23;1.20;;;8.00;99.90;;;;;;4962449;28;20471;-92
2021/05/07 00:44:47;;;;;;;1.47;1.00;;;8.00;99.90;;;;;;4979077;28;20468;-93
2021/05/07 00:47:17;;;;;;;0.70;0.70;;;8.00;99.90;;;;;;4979585;28;20460;-93
2021/05/07 00:49:50;;;;;;;0.90;0.90;;;8.00;99.90;;;;;;4977693;28;20484;-93
2021/05/07 00:52:16;;;;;;;1.07;1.07;;;8.10;99.90;;;;;;4962603;28;20496;-95
2021/05/07 00:54:42;;;;;;;1.00;1.00;;;8.10;99.90;;;;;;4960403;28;20449;-94
2021/05/07 00:57:11;;;;;;;0.80;0.80;;;8.20;99.90;;;;;;4961448;28;20315;-93
2021/05/07 00:59:39;;;;;;;0.70;0.70;;;8.20;99.90;;;;;;4960466;28;20495;-93
2021/05/07 01:02:07;;;;;;;0.90;0.90;;;8.20;99.90;;;;;;4961354;28;20535;-91
2021/05/07 01:04:32;;;;;;;1.40;1.30;;;8.10;99.90;;;;;;4979233;28;20437;-92
2021/05/07 01:07:00;;;;;;;1.33;1.23;;;8.10;99.90;;;;;;4962273;28;20480;-93
2021/05/07 01:09:26;;;;;;;1.07;0.97;;;8.00;99.90;;;;;;4978696;28;20585;-93
2021/05/07 01:11:56;;;;;;;1.07;1.07;;;8.00;99.90;;;;;;4962309;28;20460;-93
2021/05/07 01:14:28;;;;;;;2.60;1.20;;;8.00;99.90;;;;;;4971048;28;20212;-93
2021/05/07 01:17:00;;;;;;;1.20;1.10;;;8.00;99.90;;;;;;4978394;28;20460;-93
2021/05/07 01:19:28;;;;;;;1.00;1.00;;;8.00;99.90;;;;;;4959476;28;20484;-94
2021/05/07 01:21:57;;;;;;;1.07;1.03;;;8.00;99.90;;;;;;4975261;28;21288;-95
2021/05/07 01:24:26;;;;;;;1.10;1.00;;;8.00;99.90;;;;;;4965836;28;20455;-95
2021/05/07 01:26:53;;;;;;;1.03;1.03;;;7.90;99.90;;;;;;4981797;28;20451;-95
2021/05/07 01:29:20;;;;;;;0.90;0.90;;;8.00;99.90;;;;;;4962863;28;20459;-92
2021/05/07 01:31:47;;;;;;;0.70;0.70;;;7.90;99.90;;;;;;4977644;28;20499;-92
2021/05/07 01:34:13;;;;;;;0.97;0.97;;;8.00;99.90;;;;;;4962788;28;20957;-93
2021/05/07 01:36:57;;;;;;;0.90;0.90;;;8.00;99.90;;;;;;4977738;28;20486;-92
2021/05/07 01:39:32;;;;;;;1.20;0.90;;;8.00;99.90;;;;;;4958490;28;20206;-91
2021/05/07 01:42:01;;;;;;;0.70;0.70;;;8.00;99.90;;;;;;4978248;28;20860;-90
2021/05/07 01:44:29;;;;;;;1.10;1.00;;;8.00;99.90;;;;;;4961045;28;20504;-90
2021/05/07 01:46:55;;;;;;;0.80;0.80;;;8.00;99.90;;;;;;4967423;28;20200;-91
2021/05/07 01:49:20;;;;;;;1.63;1.37;;;8.00;99.90;;;;;;4964066;28;20456;-92
2021/05/07 01:51:46;;;;;;;1.30;1.20;;;8.00;99.90;;;;;;4965402;28;20189;-92
2021/05/07 01:54:24;;;;;;;1.07;1.07;;;8.00;99.90;;;;;;4963555;28;20255;-92
2021/05/07 01:56:50;;;;;;;1.00;1.00;;;8.00;99.90;;;;;;4960459;28;20511;-96
2021/05/07 01:59:16;;;;;;;0.77;0.77;;;8.00;99.90;;;;;;4967463;28;20866;-91
2021/05/07 02:01:44;;;;;;;1.17;1.07;;;8.00;99.90;;;;;;4981517;28;20213;-93
2021/05/07 02:04:10;;;;;;;0.70;0.70;;;7.90;99.90;;;;;;4981406;28;20459;-93
2021/05/07 02:06:36;;;;;;;0.70;0.70;;;7.90;99.90;;;;;;4967843;28;20504;-93
2021/05/07 02:09:04;;;;;;;2.77;0.63;;;7.80;99.90;;;;;;4984389;28;20291;-94
2021/05/07 02:11:32;;;;;;;0.60;0.60;;;7.80;99.90;;;;;;4965541;28;20231;-94
2021/05/07 02:13:58;;;;;;;0.50;0.50;;;7.90;99.90;;;;;;4968683;28;20484;-95
2021/05/07 02:16:24;;;;;;;1.13;0.70;;;7.90;99.90;;;;;;4982955;28;20452;-93
2021/05/07 02:18:50;;;;;;;0.53;0.53;;;7.80;99.90;;;;;;4964323;28;20868;-91
2021/05/07 02:21:16;;;;;;;0.60;0.60;;;7.80;99.90;;;;;;4942831;28;20236;-92
2021/05/07 02:23:59;;;;;;;0.53;0.50;;;7.80;99.90;;;;;;4962472;28;20480;-92
2021/05/07 02:27:17;;;;;;;0.40;0.40;;;7.80;99.90;;;;;;4977313;28;20248;-92
2021/05/07 02:29:45;;;;;;;0.47;0.47;;;7.90;99.90;;;;;;4977785;28;20958;-93
2021/05/07 02:32:11;;;;;;;0.40;0.40;;;7.80;99.90;;;;;;4961264;28;20460;-92
2021/05/07 02:34:38;;;;;;;0.40;0.40;;;7.80;99.90;;;;;;4960802;28;20886;-91
2021/05/07 02:37:04;;;;;;;0.50;0.50;;;7.80;99.90;;;;;;4964904;28;20205;-91
2021/05/07 02:39:29;;;;;;;0.43;0.43;;;7.80;99.90;;;;;;4979132;28;20463;-91
2021/05/07 02:41:55;;;;;;;0.50;0.50;;;7.80;99.90;;;;;;4965479;28;20201;-92
2021/05/07 02:44:21;;;;;;;0.50;0.50;;;7.70;99.90;;;;;;4964076;28;20200;-93
2021/05/07 02:46:47;;;;;;;0.70;0.70;;;7.60;99.90;;;;;;4963047;28;20671;-93
2021/05/07 02:49:12;;;;;;;0.63;0.63;;;7.60;99.90;;;;;;4961001;28;20577;-93
2021/05/07 02:51:47;;;;;;;1.10;1.00;;;7.50;99.90;;;;;;4980039;28;20737;-92
2021/05/07 02:54:12;;;;;;;1.40;1.17;;;7.60;99.90;;;;;;4962452;28;20303;-93
2021/05/07 02:56:38;;;;;;;0.70;0.70;;;7.60;99.90;;;;;;4961979;28;20540;-92
2021/05/07 02:59:04;;;;;;;1.57;0.90;;;7.60;99.90;;;;;;4963863;28;20212;-92
2021/05/07 03:01:29;;;;;;;0.60;0.60;;;7.60;99.90;;;;;;4961876;28;20633;-92
2021/05/07 03:03:55;;;;;;;1.00;1.00;;;7.50;99.90;;;;;;4962667;28;20193;-92
2021/05/07 03:06:39;;;;;;;0.63;0.63;;;7.50;99.90;;;;;;4963311;28;20193;-93
2021/05/07 03:09:07;;;;;;;1.20;0.93;;;7.50;99.90;;;;;;4980002;28;20569;-91
2021/05/07 03:11:33;;;;;;;0.93;0.87;;;7.50;99.90;;;;;;4981223;28;20447;-92
2021/05/07 03:13:58;;;;;;;1.20;1.10;;;7.50;99.90;;;;;;4960660;28;20232;-93
2021/05/07 03:16:27;;;;;;;1.70;1.43;;;7.50;99.90;;;;;;4964998;28;20441;-92
2021/05/07 03:18:52;;;;;;;2.23;1.83;;;7.50;99.90;;;;;;4963372;28;20204;-92
2021/05/07 03:21:18;;;;;;;2.80;1.80;;;7.50;99.90;;;;;;4962451;28;20440;-92
2021/05/07 03:23:44;;;;;;;1.77;1.67;;;7.50;99.90;;;;;;4979682;28;20277;-92
2021/05/07 03:26:10;;;;;;;1.30;1.20;;;7.50;99.90;;;;;;4976541;28;20981;-94
2021/05/07 03:28:39;;;;;;;0.90;0.90;;;7.50;99.90;;;;;;4965989;28;20823;-93
2021/05/07 03:31:08;;;;;;;0.90;0.90;;;7.50;99.90;;;;;;4977663;28;20437;-93
2021/05/07 03:33:34;;;;;;;0.73;0.73;;;7.50;99.90;;;;;;4965201;28;20504;-95
2021/05/07 03:36:00;;;;;;;1.03;0.90;;;7.50;99.90;;;;;;4986612;28;20457;-96
2021/05/07 03:38:26;;;;;;;1.17;1.10;;;7.50;99.90;;;;;;4980535;28;20450;-96
2021/05/07 03:40:52;;;;;;;0.77;0.77;;;7.40;99.90;;;;;;4982096;28;20456;-94
2021/05/07 03:43:18;;;;;;;0.70;0.70;;;7.40;99.90;;;;;;4964991;28;20220;-94
2021/05/07 03:45:43;;;;;;;0.80;0.80;;;7.40;99.90;;;;;;4964358;28;20213;-94
2021/05/07 03:48:14;;;;;;;0.90;0.90;;;7.40;99.90;;;;;;4978842;28;23309;-96
2021/05/07 03:50:40;;;;;;;1.20;1.20;;;7.40;99.90;;;;;;4965660;28;20197;-94
2021/05/07 03:53:05;;;;;;;3.33;1.20;;;7.40;99.90;;;;;;4980744;28;20476;-93
2021/05/07 03:55:31;;;;;;;3.57;3.37;;;7.30;99.90;;;;;;4964334;28;20193;-93
2021/05/07 03:57:58;;;;;;;2.10;1.90;;;7.30;99.90;;;;;;4979746;28;20267;-95
2021/05/07 04:00:25;;;;;;;1.13;1.13;;;7.30;99.90;;;;;;4979412;28;20714;-94
2021/05/07 04:02:50;;;;;;;2.37;1.50;;;7.20;99.90;;;;;;4960127;28;20506;-93
2021/05/07 04:05:16;;;;;;;2.30;1.50;;;7.20;99.90;;;;;;4980830;28;20487;-92
2021/05/07 04:07:42;;;;;;;2.70;1.50;;;7.20;99.90;;;;;;4980970;28;20182;-93
2021/05/07 04:10:16;;;;;;;1.60;1.50;;;7.20;99.90;;;;;;4960080;28;20239;-91
2021/05/07 04:15:11;;;;;;;1.97;1.60;;;7.10;99.90;;;;;;4983935;28;20459;-92
2021/05/07 04:17:37;;;;;;;3.53;2.13;;;7.10;99.90;;;;;;4973621;28;20493;-90
2021/05/07 04:20:04;;;;;;;1.80;1.70;;;7.10;99.90;;;;;;4976750;28;20441;-90
2021/05/07 04:22:30;;;;;;;1.60;1.50;;;7.10;99.90;;;;;;4977712;28;20182;-90
2021/05/07 04:24:55;;;;;;;1.20;1.10;;;7.00;99.90;;;;;;4978754;28;20444;-90
2021/05/07 04:27:21;;;;;;;1.63;1.43;;;6.90;99.90;;;;;;4975086;28;20214;-89
2021/05/07 04:29:47;;;;;;;2.03;1.30;;;6.70;99.90;;;;;;4975569;28;20200;-90
2021/05/07 04:32:13;;;;;;;1.40;1.13;;;6.70;99.90;;;;;;4977787;28;20191;-89
2021/05/07 04:34:39;;;;;;;1.37;1.27;;;6.60;99.90;;;;;;4977469;28;20229;-92
2021/05/07 04:37:05;;;;;;;2.07;1.57;;;6.50;99.90;;;;;;4975206;28;20986;-90
2021/05/07 04:39:30;;;;;;;1.10;1.10;;;6.40;99.90;;;;;;4969593;28;20201;-88
2021/05/07 04:42:02;;;;;;;1.00;1.00;;;6.40;99.90;;;;;;4994972;28;20173;-96
2021/05/07 04:44:28;;;;;;;1.80;1.00;;;6.40;99.90;;;;;;4981414;28;20269;-96
2021/05/07 04:46:54;;;;;;;0.80;0.80;;;6.40;99.90;;;;;;5483885;23;20482;-93
2021/05/07 04:59:59;;;;;;;0.80;0.80;;;6.30;99.90;;;;;;4973116;28;20494;-95
2021/05/07 05:02:35;;;;;;;0.50;0.50;;;6.20;99.90;;;;;;4968821;28;20534;-93
2021/05/07 05:05:14;;;;;;;0.80;0.50;;;6.30;99.90;;;;;;4941539;28;20461;-91
2021/05/07 05:08:16;;;;;;;1.03;0.60;;;6.40;99.90;;;;;;4948378;28;20549;-91
2021/05/07 05:10:48;;;;;;;0.60;0.60;;;6.30;99.90;;;;;;4966955;28;20450;-93
2021/05/07 05:13:17;;;;;;;0.60;0.60;;;6.30;99.90;;;;;;4946586;28;20492;-95
2021/05/07 05:15:47;;;;;;;1.23;0.73;;;6.30;99.90;;;;;;4945794;28;20473;-91
2021/05/07 05:18:32;;;;;;;0.90;0.90;;;6.30;99.90;;;;;;4944697;28;20469;-90
2021/05/07 05:21:03;;;;;;;0.77;0.77;;;6.20;99.90;;;;;;4964137;28;20500;-96
2021/05/07 05:23:30;;;;;;;0.80;0.80;;;6.20;99.90;;;;;;4950453;28;20509;-89
2021/05/07 05:25:57;;;;;;;0.97;0.80;;;6.20;99.90;;;;;;4964933;28;20517;-90
2021/05/07 05:28:23;;;;;;;0.80;0.80;;;6.20;99.90;;;;;;4949918;28;20449;-93
2021/05/07 05:30:51;;;;;;;1.60;1.50;;;6.20;99.90;;;;;;4982402;28;20733;-95
2021/05/07 05:33:27;;;;;;;1.10;1.10;;;6.10;99.90;;;;;;4966744;28;20481;-93
2021/05/07 05:35:56;;;;;;;1.30;1.20;;;6.20;99.90;;;;;;4951676;28;20697;-95
2021/05/07 05:38:21;;;;;;;1.03;1.03;;;6.20;99.90;;;;;;4949624;28;20492;-90
2021/05/07 05:40:47;;;;;;;0.93;0.93;;;6.20;99.90;;;;;;4952324;28;20976;-92
2021/05/07 05:43:14;;;;;;;1.50;1.40;;;6.20;99.90;;;;;;4953063;28;20552;-93
2021/05/07 05:45:40;;;;;;;2.93;1.50;;;6.20;99.90;;;;;;4949478;28;20963;-90
2021/05/07 05:48:13;;;;;;;2.20;1.93;;;6.30;99.90;;;;;;4948923;28;20450;-90
2021/05/07 05:50:40;;;;;;;2.80;2.13;;;6.30;99.90;;;;;;4948587;28;20588;-89
2021/05/07 05:53:09;;;;;;;1.57;1.47;;;6.40;99.90;;;;;;4950176;28;20557;-89
2021/05/07 05:55:38;;;;;;;1.00;1.00;;;6.40;99.90;;;;;;4951012;28;20851;-91
2021/05/07 05:58:05;;;;;;;1.33;1.10;;;6.30;99.90;;;;;;4948055;28;20466;-90
2021/05/07 06:00:34;;;;;;;1.57;1.47;;;6.30;99.90;;;;;;4950584;28;20426;-93
2021/05/07 06:02:59;;;;;;;1.57;1.47;;;6.20;99.90;;;;;;4941454;28;20454;-92
2021/05/07 06:05:27;;;;;;;1.93;1.50;;;6.30;99.90;;;;;;4950535;28;20448;-90
2021/05/07 06:07:53;;;;;;;1.70;1.60;;;6.30;99.90;;;;;;4949914;28;20186;-94
2021/05/07 06:10:22;;;;;;;1.30;1.20;;;6.40;99.90;;;;;;4952405;28;20457;-96
2021/05/07 06:12:49;;;;;;;3.00;1.50;;;6.40;99.90;;;;;;4951859;28;20592;-95
2021/05/07 06:15:18;;;;;;;1.70;1.60;;;6.50;99.90;;;;;;4953183;28;20436;-95
2021/05/07 06:17:45;;;;;;;1.30;1.20;;;6.60;99.90;;;;;;4957193;28;20483;-94
2021/05/07 06:20:12;;;;;;;1.67;1.57;;;6.70;99.90;;;;;;4955972;28;20486;-94
2021/05/07 06:22:39;;;;;;;1.60;1.20;;;6.70;99.90;;;;;;4955233;28;20457;-96
2021/05/07 06:25:13;;;;;;;1.33;1.20;;;6.70;99.90;;;;;;4954756;28;20431;-94
2021/05/07 06:27:43;;;;;;;3.33;1.23;;;6.80;99.90;;;;;;4952272;28;20498;-95
2021/05/07 06:30:14;;;;;;;1.40;1.30;;;6.90;99.90;;;;;;4957208;28;20445;-96
2021/05/07 07:34:42;;;;;;;5.00;4.60;;;7.50;99.90;;;;;;4961329;28;20501;-94
2021/05/07 07:37:08;;;;;;;4.30;3.90;;;7.30;99.90;;;;;;4977019;28;20461;-92
2021/05/07 07:39:34;;;;;;;4.43;4.03;;;7.10;99.90;;;;;;4959346;28;20762;-93
2021/05/07 07:42:00;;;;;;;5.87;4.70;;;7.10;99.90;;;;;;4943826;28;20198;-93
2021/05/07 07:44:25;;;;;;;7.17;4.80;;;7.00;99.90;;;;;;4946993;28;20201;-93
2021/05/07 07:46:51;;;;;;;5.27;4.87;;;7.00;99.90;;;;;;4946863;28;20286;-93
2021/05/07 07:49:17;;;;;;;6.67;6.10;;;7.00;99.90;;;;;;4949243;28;20573;-93
2021/05/07 07:51:43;;;;;;;7.63;6.20;;;7.00;99.90;;;;;;4953105;28;20188;-93
2021/05/07 07:54:11;;;;;;;5.93;5.33;;;6.90;99.90;;;;;;4947604;28;20213;-91
2021/05/07 07:56:37;;;;;;;6.20;5.63;;;6.90;99.90;;;;;;4945723;28;20463;-92
2021/05/07 07:59:03;;;;;;;6.20;5.47;;;6.90;99.90;;;;;;4949976;28;20450;-94
2021/05/07 08:01:29;;;;;;;7.90;7.13;;;6.90;99.90;;;;;;4964250;28;20202;-93
2021/05/07 08:03:55;;;;;;;8.47;7.40;;;7.00;99.90;;;;;;4945121;28;20460;-94
2021/05/07 08:06:22;;;;;;;8.80;7.90;;;7.00;99.90;;;;;;4943912;28;20294;-93
2021/05/07 08:08:48;;;;;;;7.10;6.50;;;7.20;99.90;;;;;;4950646;28;20452;-92
2021/05/07 08:11:14;;;;;;;7.00;6.40;;;7.20;99.90;;;;;;4960347;28;20977;-92
2021/05/07 08:13:39;;;;;;;7.60;6.50;;;7.10;99.90;;;;;;4946706;28;20520;-93
2021/05/07 08:16:08;;;;;;;7.90;7.10;;;7.30;99.90;;;;;;4940291;28;20499;-91
2021/05/07 08:18:36;;;;;;;7.97;6.70;;;7.50;99.90;;;;;;4964741;28;20220;-93
2021/05/07 08:21:02;;;;;;;8.40;7.40;;;7.60;99.90;;;;;;4946961;28;20502;-93
2021/05/07 08:23:28;;;;;;;7.40;6.80;;;7.60;99.90;;;;;;4964032;28;20881;-92
2021/05/07 08:25:53;;;;;;;7.13;6.47;;;7.50;99.90;;;;;;4946747;28;20245;-92
2021/05/07 08:28:19;;;;;;;13.20;8.63;;;7.70;99.90;;;;;;4942419;28;20287;-92
2021/05/07 08:30:48;;;;;;;7.70;6.27;;;7.80;99.90;;;;;;4952136;28;20465;-92
2021/05/07 08:33:13;;;;;;;7.70;6.70;;;7.70;99.90;;;;;;4947735;28;20228;-92
2021/05/07 08:35:39;;;;;;;7.63;6.93;;;7.70;99.90;;;;;;4950308;28;20450;-94
2021/05/07 08:38:08;;;;;;;6.30;5.70;;;7.80;99.90;;;;;;4946997;28;20221;-93
2021/05/07 08:40:34;;;;;;;6.20;5.67;;;7.70;99.90;;;;;;4951486;28;20204;-93
2021/05/07 08:43:00;;;;;;;6.03;5.53;;;7.80;99.90;;;;;;4952453;28;20974;-91
2021/05/07 08:45:26;;;;;;;5.00;4.60;;;7.70;99.90;;;;;;4948081;28;20451;-91
2021/05/07 08:47:55;;;;;;;5.90;5.40;;;7.80;99.90;;;;;;4941994;28;20189;-91
2021/05/07 08:50:21;;;;;;;5.60;5.10;;;8.10;99.90;;;;;;4946403;28;20543;-89
2021/05/07 08:52:47;;;;;;;6.00;5.50;;;8.10;99.90;;;;;;4945369;28;20479;-90
2021/05/07 08:55:13;;;;;;;6.17;5.57;;;8.40;99.90;;;;;;4954191;28;20195;-90
2021/05/07 08:57:39;;;;;;;6.07;5.50;;;8.40;99.90;;;;;;4966972;28;20599;-90
2021/05/07 09:00:09;;;;;;;6.30;5.70;;;8.50;99.90;;;;;;4949485;28;20449;-89
2021/05/07 09:02:35;;;;;;;6.57;5.97;;;8.40;99.90;;;;;;4966220;28;20664;-92
2021/05/07 09:05:03;;;;;;;9.53;6.60;;;8.60;99.90;;;;;;4947977;28;20552;-92
2021/05/07 09:07:33;;;;;;;5.77;5.27;;;9.10;99.90;;;;;;4962284;28;20208;-92
2021/05/07 09:10:03;;;;;;;4.63;4.23;;;9.70;99.90;;;;;;4946966;28;20939;-96
2021/05/07 09:12:37;;;;;;;5.17;4.67;;;9.50;99.90;;;;;;4953866;28;20438;-93
2021/05/07 09:15:19;;;;;;;5.83;5.23;;;9.30;99.90;;;;;;4948559;28;20448;-92
2021/05/07 09:17:45;;;;;;;5.23;4.83;;;9.60;99.90;;;;;;4962282;28;20439;-92
2021/05/07 09:20:13;;;;;;;5.03;4.63;;;10.20;99.90;;;;;;4946907;28;20969;-91
2021/05/07 09:22:40;;;;;;;4.87;4.37;;;10.30;99.90;;;;;;4949071;28;20194;-91
2021/05/07 09:25:14;;;;;;;4.63;3.97;;;9.70;99.90;;;;;;4948213;28;20476;-90
2021/05/07 09:27:40;;;;;;;3.80;3.50;;;9.50;99.90;;;;;;4968536;28;20465;-92
2021/05/07 09:30:20;;;;;;;3.90;3.60;;;9.70;99.90;;;;;;4953085;28;20460;-89
2021/05/07 09:32:49;;;;;;;4.47;4.07;;;10.10;99.90;;;;;;4963479;28;20478;-93
2021/05/07 09:35:15;;;;;;;4.17;3.77;;;10.30;99.90;;;;;;4948583;28;20438;-90
2021/05/07 09:37:43;;;;;;;4.23;3.80;;;10.50;99.90;;;;;;4952050;28;20722;-92
2021/05/07 09:40:15;;;;;;;4.17;3.77;;;10.40;99.90;;;;;;4940540;28;20467;-91
2021/05/07 09:42:41;;;;;;;4.23;3.80;;;9.70;99.90;;;;;;4950748;28;20524;-89
2021/05/07 09:45:22;;;;;;;4.23;3.83;;;9.50;99.90;;;;;;4948071;28;20446;-91
2021/05/07 09:47:51;;;;;;;3.13;2.87;;;9.40;99.90;;;;;;4959587;28;20500;-91
2021/05/07 09:50:39;;;;;;;4.17;3.77;;;9.30;99.90;;;;;;4959446;28;20467;-92
2021/05/07 09:53:32;;;;;;;3.63;3.20;;;9.30;99.90;;;;;;5542674;23;20485;-92
2021/05/07 09:56:26;;;;;;;4.17;3.87;;;9.10;99.90;;;;;;4957688;28;20524;-92
2021/05/07 09:58:53;;;;;;;4.83;4.43;;;9.20;99.90;;;;;;4951283;28;20441;-91
2021/05/07 10:01:19;;;;;;;4.63;4.23;;;9.30;99.90;;;;;;4950054;28;20460;-90
2021/05/07 10:03:45;;;;;;;5.80;3.80;;;9.30;99.90;;;;;;4935541;28;20856;-90
2021/05/07 10:06:10;;;;;;;4.87;3.97;;;10.00;99.90;;;;;;4954012;28;20524;-90
2021/05/07 10:08:45;;;;;;;5.10;4.30;;;10.40;99.90;;;;;;4949094;28;20479;-91
2021/05/07 10:11:11;;;;;;;4.93;3.73;;;10.50;99.90;;;;;;4958551;28;20208;-93
2021/05/07 10:13:38;;;;;;;3.63;3.33;;;10.60;99.90;;;;;;4953871;28;20511;-90
2021/05/07 10:16:08;;;;;;;4.27;3.70;;;11.00;97.20;;;;;;4956734;28;20879;-91
2021/05/07 10:18:37;;;;;;;3.03;2.80;;;11.40;96.50;;;;;;4956878;28;20508;-91
2021/05/07 10:21:14;;;;;;;3.40;3.10;;;11.70;95.40;;;;;;4957043;28;20797;-91
2021/05/07 10:23:53;;;;;;;4.83;3.80;;;10.50;94.60;;;;;;4956074;28;20479;-90
2021/05/07 10:26:34;;;;;;;3.60;3.30;;;10.40;97.00;;;;;;4990664;28;20437;-91
2021/05/07 10:29:02;;;;;;;3.63;3.33;;;10.90;96.30;;;;;;4955656;28;20456;-91
2021/05/07 10:31:30;;;;;;;3.63;3.00;;;11.30;95.00;;;;;;4957497;28;20528;-91
2021/05/07 10:34:04;;;;;;;4.10;3.17;;;11.00;91.20;;;;;;4950716;28;20487;-90
2021/05/07 10:36:47;;;;;;;3.73;3.10;;;10.60;92.20;;;;;;4954570;28;20929;-90
2021/05/07 10:39:21;;;;;;;3.47;3.17;;;10.50;92.80;;;;;;4948830;28;20962;-89
2021/05/07 10:41:51;;;;;;;3.33;3.13;;;10.30;92.00;;;;;;4980204;28;20451;-90
2021/05/07 10:44:18;;;;;;;3.57;3.27;;;10.50;91.90;;;;;;4954529;28;21150;-91
2021/05/07 10:47:09;;;;;;;3.10;2.90;;;10.50;93.20;;;;;;4948721;28;20453;-91
2021/05/07 10:49:46;;;;;;;3.87;3.40;;;10.70;93.20;;;;;;4949943;28;20463;-93
2021/05/07 10:52:16;;;;;;;5.50;3.50;;;10.70;94.50;;;;;;4948887;28;20875;-90
2021/05/07 10:54:49;;;;;;;3.10;2.90;;;11.20;94.40;;;;;;4950661;28;20460;-88
2021/05/07 10:57:23;;;;;;;3.13;2.93;;;11.50;93.70;;;;;;4947445;28;20445;-87
2021/05/07 10:59:57;;;;;;;3.60;3.13;;;12.00;93.00;;;;;;4964099;28;20480;-90
2021/05/07 11:02:28;;;;;;;3.80;2.87;;;11.70;89.00;;;;;;4959906;28;20445;-90
2021/05/07 11:04:57;;;;;;;4.03;2.50;;;11.20;89.50;;;;;;4951147;28;20461;-92
2021/05/07 11:07:28;;;;;;;3.63;3.00;;;10.80;88.80;;;;;;4942470;28;20956;-89
2021/05/07 11:10:07;;;;;;;2.80;2.60;;;10.30;89.40;;;;;;4961211;28;20453;-91
2021/05/07 11:12:39;;;;;;;3.77;3.13;;;10.20;90.50;;;;;;4944820;28;21064;-90
2021/05/07 11:15:13;;;;;;;3.23;2.93;;;10.20;87.00;;;;;;4949940;28;20456;-89
2021/05/07 11:17:38;;;;;;;7.60;3.13;;;10.10;86.30;;;;;;4945588;28;20446;-89
2021/05/07 11:20:05;;;;;;;2.90;2.70;;;10.00;89.30;;;;;;4949306;28;21065;-89
2021/05/07 11:22:31;;;;;;;3.70;3.27;;;10.00;90.90;;;;;;4954848;28;20720;-86
2021/05/07 11:24:57;;;;;;;3.57;3.27;;;9.90;91.10;;;;;;4945814;28;20452;-88
2021/05/07 11:27:28;;;;;;;3.90;3.20;;;10.00;90.80;;;;;;4956173;28;20898;-88
2021/05/07 11:30:04;;;;;;;4.40;3.00;;;10.50;92.20;;;;;;4951640;28;20218;-86
2021/05/07 11:32:31;;;;;;;3.80;2.70;;;11.10;90.40;;;;;;4970796;28;20446;-85
2021/05/07 11:35:01;;;;;;;3.00;2.80;;;10.70;85.60;;;;;;4961435;28;20844;-84
2021/05/07 11:37:28;;;;;;;4.63;2.67;;;10.70;87.00;;;;;;4947719;28;20948;-87
2021/05/07 11:40:17;;;;;;;2.80;2.60;;;10.70;89.60;;;;;;4948896;28;20448;-86
2021/05/07 11:42:50;;;;;;;3.00;2.70;;;10.50;87.20;;;;;;4938384;28;20482;-86
2021/05/07 11:45:27;;;;;;;4.43;3.00;;;10.60;88.30;;;;;;4952388;28;20456;-88
2021/05/07 11:47:53;;;;;;;3.30;3.00;;;10.70;90.30;;;;;;4943297;28;20457;-84
2021/05/07 11:50:21;;;;;;;3.97;3.57;;;11.20;90.80;;;;;;4965861;28;20989;-87
2021/05/07 11:52:48;;;;;;;3.97;3.67;;;11.60;89.80;;;;;;4935405;28;20276;-87
2021/05/07 11:55:39;;;;;;;3.67;3.03;;;12.00;88.50;;;;;;4953033;28;20477;-88
2021/05/07 11:58:08;;;;;;;3.87;3.57;;;12.10;88.20;;;;;;4951077;28;20968;-87
2021/05/07 12:00:38;;;;;;;3.07;2.87;;;12.60;88.10;;;;;;4960383;28;20524;-88
2021/05/07 12:03:12;;;;;;;4.63;3.00;;;12.30;86.10;;;;;;4949411;28;20445;-88
2021/05/07 12:05:40;;;;;;;3.33;3.03;;;12.40;85.10;;;;;;4958538;28;20457;-90
2021/05/07 12:08:26;;;;;;;3.20;2.90;;;12.50;82.00;;;;;;4955947;28;20815;-89
2021/05/07 12:10:52;;;;;;;3.77;3.10;;;12.20;79.60;;;;;;4950499;28;20900;-88
2021/05/07 12:13:24;;;;;;;3.90;3.40;;;12.30;80.80;;;;;;4967989;28;20568;-87
2021/05/07 12:15:54;;;;;;;4.00;3.53;;;12.70;84.60;;;;;;4948795;28;20260;-87
2021/05/07 12:18:24;;;;;;;3.13;2.93;;;13.50;82.20;;;;;;4967929;28;20787;-89
2021/05/07 12:20:57;;;;;;;3.30;3.00;;;12.60;76.60;;;;;;4972064;28;20524;-92
2021/05/07 12:23:24;;;;;;;3.33;2.90;;;12.40;76.10;;;;;;4940086;28;20441;-90
2021/05/07 12:25:50;;;;;;;3.57;3.27;;;12.50;75.10;;;;;;4954167;28;20927;-88
2021/05/07 12:28:23;;;;;;;3.67;3.37;;;12.20;74.90;;;;;;4956640;28;20520;-86
2021/05/07 12:30:50;;;;;;;3.93;3.53;;;12.10;78.40;;;;;;4947984;28;22055;-85
2021/05/07 12:33:27;;;;;;;5.70;3.47;;;12.00;74.50;;;;;;4962304;28;20495;-87
2021/05/07 12:36:14;;;;;;;3.17;2.87;;;11.80;77.50;;;;;;4933583;28;20441;-87
2021/05/07 12:38:43;;;;;;;6.20;3.00;;;11.60;78.60;;;;;;4963456;28;20456;-87
2021/05/07 12:41:21;;;;;;;4.07;3.47;;;11.50;78.60;;;;;;4948456;28;20476;-87
2021/05/07 12:43:53;;;;;;;2.53;2.33;;;11.60;78.30;;;;;;4967965;28;20464;-88
2021/05/07 12:46:19;;;;;;;3.20;2.90;;;11.40;76.80;;;;;;4944471;28;20449;-87
2021/05/07 12:48:49;;;;;;;3.50;2.67;;;11.40;74.60;;;;;;4942004;28;20464;-88
2021/05/07 12:51:17;;;;;;;2.60;2.40;;;11.30;76.60;;;;;;4941759;28;20459;-87
2021/05/07 12:53:43;;;;;;;2.73;2.47;;;11.20;79.30;;;;;;4933647;28;20485;-87
2021/05/07 12:56:12;;;;;;;3.23;2.63;;;11.10;80.90;;;;;;4937815;28;20448;-87
2021/05/07 12:58:37;;;;;;;2.73;2.03;;;11.10;80.40;;;;;;4953240;28;20515;-87
2021/05/07 13:01:03;;;;;;;2.63;2.43;;;11.00;76.90;;;;;;4936847;28;20860;-87
2021/05/07 13:03:38;;;;;;;3.17;2.27;;;11.40;78.50;;;;;;4920430;28;20581;-87
2021/05/07 13:06:04;;;;;;;2.77;2.57;;;12.00;76.10;;;;;;4938102;28;20445;-88
2021/05/07 13:08:30;;;;;;;3.67;2.67;;;11.90;73.40;;;;;;4938182;28;20449;-88
2021/05/07 13:10:55;;;;;;;2.37;2.13;;;11.30;76.60;;;;;;4954018;28;20527;-88
2021/05/07 13:13:21;;;;;;;2.80;2.30;;;11.30;76.30;;;;;;4942042;28;20833;-88
2021/05/07 13:15:47;;;;;;;3.10;2.80;;;11.90;75.80;;;;;;4953274;28;20216;-87
2021/05/07 13:18:12;;;;;;;2.70;2.47;;;12.50;75.80;;;;;;4941211;28;20190;-87
2021/05/07 13:20:38;;;;;;;2.80;2.60;;;12.80;73.00;;;;;;4942212;28;20190;-87
2021/05/07 13:23:05;;;;;;;2.60;2.40;;;13.10;73.30;;;;;;4939891;28;20261;-87
2021/05/07 13:25:38;;;;;;;6.07;2.67;;;13.50;69.60;;;;;;4940083;28;20444;-88
2021/05/07 13:28:04;;;;;;;2.63;2.43;;;13.80;66.20;;;;;;4937570;28;20486;-88
2021/05/07 13:30:30;;;;;;;2.30;2.20;;;13.30;68.90;;;;;;4940319;28;20596;-87
2021/05/07 13:32:56;;;;;;;3.10;2.80;;;12.60;71.40;;;;;;4939656;28;20575;-88
2021/05/07 13:35:22;;;;;;;3.10;2.70;;;11.80;70.00;;;;;;4937483;28;20492;-89
2021/05/07 13:37:48;;;;;;;5.00;2.60;;;11.40;70.00;;;;;;4940338;28;20544;-88
2021/05/07 13:40:15;;;;;;;3.50;2.93;;;11.50;73.40;;;;;;4936603;28;20825;-91
2021/05/07 13:42:41;;;;;;;3.50;2.63;;;11.40;74.30;;;;;;4940756;28;21227;-88
2021/05/07 13:45:09;;;;;;;3.10;2.90;;;11.30;77.20;;;;;;4930102;28;20492;-87
2021/05/07 13:47:39;;;;;;;3.43;3.10;;;11.40;77.10;;;;;;4944293;28;20204;-88
2021/05/07 13:50:05;;;;;;;4.17;2.57;;;11.50;77.50;;;;;;4942388;28;20495;-88
2021/05/07 13:52:31;;;;;;;2.93;2.70;;;11.40;76.60;;;;;;4939340;28;20823;-90
2021/05/07 13:54:57;;;;;;;3.10;2.80;;;11.40;76.10;;;;;;4939130;28;21160;-89
2021/05/07 13:57:22;;;;;;;3.00;2.53;;;11.20;76.20;;;;;;4937292;28;20209;-90
2021/05/07 13:59:48;;;;;;;3.30;2.60;;;11.10;78.40;;;;;;4944236;28;20190;-89
2021/05/07 14:02:14;;;;;;;2.40;2.20;;;11.00;78.30;;;;;;4945005;28;20198;-90
2021/05/07 14:04:39;;;;;;;2.60;2.40;;;10.90;79.00;;;;;;4938999;28;20767;-89
2021/05/07 14:07:05;;;;;;;2.20;2.00;;;11.00;72.90;;;;;;4931793;28;20186;-90
2021/05/07 14:09:31;;;;;;;2.47;2.27;;;11.10;73.90;;;;;;4941004;28;20191;-89
2021/05/07 14:11:57;;;;;;;2.80;2.60;;;11.10;77.90;;;;;;4941184;28;20842;-89
2021/05/07 14:14:22;;;;;;;3.43;3.13;;;11.40;81.00;;;;;;4937310;28;20230;-89
2021/05/07 14:16:48;;;;;;;4.13;3.73;;;11.20;83.60;;;;;;4942610;28;21473;-90
2021/05/07 14:19:14;;;;;;;3.47;3.13;;;11.00;87.00;;;;;;4940797;28;20224;-89
2021/05/07 14:21:41;;;;;;;3.80;2.90;;;10.90;89.90;;;;;;4935946;28;20516;-90